sensor_id;sensor_type;location;lat;lon;timestamp;P1;durP1;ratioP1;P2;durP2;ratioP2
57635;SDS011;43465;50.728;4.160;2023-11-21T00:01:53;42.35;;;25.48;;
57635;SDS011;43465;50.728;4.160;2023-11-21T00:04:19;44.20;;;25.55;;
57635;SDS011;43465;50.728;4.160;2023-11-21T00:06:46;42.05;;;25.10;;
57635;SDS011;43465;50.728;4.160;2023-11-21T00:09:12;41.30;;;24.85;;
57635;SDS011;43465;50.728;4.160;2023-11-21T00:11:40;43.08;;;24.60;;
57635;SDS011;43465;50.728;4.160;2023-11-21T00:14:06;45.58;;;24.55;;
57635;SDS011;43465;50.728;4.160;2023-11-21T00:16:33;41.83;;;23.65;;
57635;SDS011;43465;50.728;4.160;2023-11-21T00:18:59;42.53;;;23.63;;
57635;SDS011;43465;50.728;4.160;2023-11-21T00:21:25;45.22;;;24.65;;
57635;SDS011;43465;50.728;4.160;2023-11-21T00:23:50;43.63;;;25.42;;
57635;SDS011;43465;50.728;4.160;2023-11-21T00:26:16;47.58;;;25.83;;
57635;SDS011;43465;50.728;4.160;2023-11-21T00:28:42;43.53;;;25.35;;
57635;SDS011;43465;50.728;4.160;2023-11-21T00:31:07;44.90;;;25.92;;
57635;SDS011;43465;50.728;4.160;2023-11-21T00:33:33;47.28;;;27.05;;
57635;SDS011;43465;50.728;4.160;2023-11-21T00:35:59;49.10;;;27.65;;
57635;SDS011;43465;50.728;4.160;2023-11-21T00:38:25;54.83;;;28.48;;
57635;SDS011;43465;50.728;4.160;2023-11-21T00:40:52;48.55;;;27.33;;
57635;SDS011;43465;50.728;4.160;2023-11-21T00:43:21;56.15;;;27.98;;
57635;SDS011;43465;50.728;4.160;2023-11-21T00:45:47;56.03;;;28.92;;
57635;SDS011;43465;50.728;4.160;2023-11-21T00:48:14;59.38;;;30.48;;
57635;SDS011;43465;50.728;4.160;2023-11-21T00:50:39;51.25;;;28.40;;
57635;SDS011;43465;50.728;4.160;2023-11-21T00:53:05;60.65;;;29.55;;
57635;SDS011;43465;50.728;4.160;2023-11-21T00:55:32;64.85;;;29.38;;
57635;SDS011;43465;50.728;4.160;2023-11-21T00:57:58;60.35;;;30.15;;
57635;SDS011;43465;50.728;4.160;2023-11-21T01:00:24;63.40;;;29.38;;
57635;SDS011;43465;50.728;4.160;2023-11-21T01:02:50;66.47;;;28.40;;
57635;SDS011;43465;50.728;4.160;2023-11-21T01:05:16;71.07;;;29.15;;
57635;SDS011;43465;50.728;4.160;2023-11-21T01:07:42;88.32;;;29.45;;
57635;SDS011;43465;50.728;4.160;2023-11-21T01:10:08;60.53;;;29.05;;
57635;SDS011;43465;50.728;4.160;2023-11-21T01:12:35;51.85;;;28.08;;
57635;SDS011;43465;50.728;4.160;2023-11-21T01:15:02;49.33;;;26.80;;
57635;SDS011;43465;50.728;4.160;2023-11-21T01:17:29;59.85;;;29.15;;
57635;SDS011;43465;50.728;4.160;2023-11-21T01:19:54;49.60;;;26.92;;
57635;SDS011;43465;50.728;4.160;2023-11-21T01:22:21;56.13;;;30.60;;
57635;SDS011;43465;50.728;4.160;2023-11-21T01:24:51;56.33;;;28.60;;
57635;SDS011;43465;50.728;4.160;2023-11-21T01:27:18;55.72;;;30.15;;
57635;SDS011;43465;50.728;4.160;2023-11-21T01:29:43;60.45;;;30.30;;
57635;SDS011;43465;50.728;4.160;2023-11-21T01:32:09;63.40;;;30.73;;
57635;SDS011;43465;50.728;4.160;2023-11-21T01:34:35;180.85;;;32.15;;
57635;SDS011;43465;50.728;4.160;2023-11-21T01:37:01;157.43;;;30.95;;
57635;SDS011;43465;50.728;4.160;2023-11-21T01:39:29;86.18;;;29.60;;
57635;SDS011;43465;50.728;4.160;2023-11-21T01:41:55;57.55;;;29.75;;
57635;SDS011;43465;50.728;4.160;2023-11-21T01:44:23;51.88;;;29.88;;
57635;SDS011;43465;50.728;4.160;2023-11-21T01:46:49;58.47;;;30.00;;
57635;SDS011;43465;50.728;4.160;2023-11-21T01:49:16;56.53;;;31.35;;
57635;SDS011;43465;50.728;4.160;2023-11-21T01:51:47;54.22;;;29.70;;
57635;SDS011;43465;50.728;4.160;2023-11-21T01:54:14;60.88;;;30.13;;
57635;SDS011;43465;50.728;4.160;2023-11-21T01:56:42;58.92;;;29.27;;
57635;SDS011;43465;50.728;4.160;2023-11-21T01:59:10;52.35;;;29.55;;
57635;SDS011;43465;50.728;4.160;2023-11-21T02:01:39;52.42;;;29.80;;
57635;SDS011;43465;50.728;4.160;2023-11-21T02:04:04;57.35;;;30.10;;
57635;SDS011;43465;50.728;4.160;2023-11-21T02:06:30;53.95;;;29.02;;
57635;SDS011;43465;50.728;4.160;2023-11-21T02:08:56;47.95;;;27.38;;
57635;SDS011;43465;50.728;4.160;2023-11-21T02:11:22;49.55;;;28.17;;
57635;SDS011;43465;50.728;4.160;2023-11-21T02:13:47;50.30;;;26.67;;
57635;SDS011;43465;50.728;4.160;2023-11-21T02:16:15;53.58;;;28.98;;
57635;SDS011;43465;50.728;4.160;2023-11-21T02:18:40;59.85;;;28.90;;
57635;SDS011;43465;50.728;4.160;2023-11-21T02:21:06;50.55;;;28.23;;
57635;SDS011;43465;50.728;4.160;2023-11-21T02:23:32;51.90;;;28.75;;
57635;SDS011;43465;50.728;4.160;2023-11-21T02:25:58;56.75;;;28.98;;
57635;SDS011;43465;50.728;4.160;2023-11-21T02:28:29;50.00;;;27.85;;
57635;SDS011;43465;50.728;4.160;2023-11-21T02:30:54;44.17;;;27.80;;
57635;SDS011;43465;50.728;4.160;2023-11-21T02:33:21;44.58;;;27.30;;
57635;SDS011;43465;50.728;4.160;2023-11-21T02:35:47;45.55;;;26.65;;
57635;SDS011;43465;50.728;4.160;2023-11-21T02:38:13;43.47;;;26.20;;
57635;SDS011;43465;50.728;4.160;2023-11-21T02:40:39;46.10;;;25.73;;
57635;SDS011;43465;50.728;4.160;2023-11-21T02:43:05;46.63;;;26.20;;
57635;SDS011;43465;50.728;4.160;2023-11-21T02:45:31;44.30;;;25.08;;
57635;SDS011;43465;50.728;4.160;2023-11-21T02:47:57;40.35;;;25.67;;
57635;SDS011;43465;50.728;4.160;2023-11-21T02:50:23;38.92;;;24.38;;
57635;SDS011;43465;50.728;4.160;2023-11-21T02:52:49;54.92;;;24.67;;
57635;SDS011;43465;50.728;4.160;2023-11-21T02:55:15;38.22;;;24.80;;
57635;SDS011;43465;50.728;4.160;2023-11-21T02:57:41;37.78;;;24.35;;
57635;SDS011;43465;50.728;4.160;2023-11-21T03:00:06;38.97;;;24.55;;
57635;SDS011;43465;50.728;4.160;2023-11-21T03:02:33;34.88;;;22.20;;
57635;SDS011;43465;50.728;4.160;2023-11-21T03:05:04;33.67;;;23.08;;
57635;SDS011;43465;50.728;4.160;2023-11-21T03:07:30;35.03;;;21.55;;
57635;SDS011;43465;50.728;4.160;2023-11-21T03:09:56;27.27;;;20.33;;
57635;SDS011;43465;50.728;4.160;2023-11-21T03:12:22;28.45;;;19.38;;
57635;SDS011;43465;50.728;4.160;2023-11-21T03:14:48;30.30;;;20.10;;
57635;SDS011;43465;50.728;4.160;2023-11-21T03:17:13;29.48;;;19.33;;
57635;SDS011;43465;50.728;4.160;2023-11-21T03:19:41;32.72;;;20.45;;
57635;SDS011;43465;50.728;4.160;2023-11-21T03:22:07;30.23;;;19.30;;
57635;SDS011;43465;50.728;4.160;2023-11-21T03:24:33;29.75;;;20.20;;
57635;SDS011;43465;50.728;4.160;2023-11-21T03:26:59;25.30;;;19.77;;
57635;SDS011;43465;50.728;4.160;2023-11-21T03:29:25;28.52;;;19.23;;
57635;SDS011;43465;50.728;4.160;2023-11-21T03:31:51;33.25;;;19.98;;
57635;SDS011;43465;50.728;4.160;2023-11-21T03:34:23;27.58;;;18.40;;
57635;SDS011;43465;50.728;4.160;2023-11-21T03:36:53;30.77;;;18.98;;
57635;SDS011;43465;50.728;4.160;2023-11-21T03:39:22;32.88;;;20.25;;
57635;SDS011;43465;50.728;4.160;2023-11-21T03:41:48;32.65;;;20.00;;
57635;SDS011;43465;50.728;4.160;2023-11-21T03:44:14;34.78;;;20.85;;
57635;SDS011;43465;50.728;4.160;2023-11-21T03:46:39;31.50;;;20.60;;
57635;SDS011;43465;50.728;4.160;2023-11-21T03:49:05;38.42;;;21.75;;
57635;SDS011;43465;50.728;4.160;2023-11-21T03:51:32;36.50;;;22.05;;
57635;SDS011;43465;50.728;4.160;2023-11-21T03:53:59;36.63;;;23.08;;
57635;SDS011;43465;50.728;4.160;2023-11-21T03:56:24;38.55;;;23.45;;
57635;SDS011;43465;50.728;4.160;2023-11-21T03:58:50;39.08;;;23.25;;
57635;SDS011;43465;50.728;4.160;2023-11-21T04:01:22;40.33;;;23.63;;
57635;SDS011;43465;50.728;4.160;2023-11-21T04:03:48;33.75;;;23.25;;
57635;SDS011;43465;50.728;4.160;2023-11-21T04:06:14;37.97;;;24.98;;
57635;SDS011;43465;50.728;4.160;2023-11-21T04:08:40;39.53;;;24.90;;
57635;SDS011;43465;50.728;4.160;2023-11-21T04:11:07;42.40;;;24.85;;
57635;SDS011;43465;50.728;4.160;2023-11-21T04:13:32;39.08;;;24.73;;
57635;SDS011;43465;50.728;4.160;2023-11-21T04:15:58;42.88;;;23.40;;
57635;SDS011;43465;50.728;4.160;2023-11-21T04:18:23;33.17;;;23.75;;
57635;SDS011;43465;50.728;4.160;2023-11-21T04:20:49;39.10;;;23.90;;
57635;SDS011;43465;50.728;4.160;2023-11-21T04:23:15;36.05;;;23.27;;
57635;SDS011;43465;50.728;4.160;2023-11-21T04:25:40;38.25;;;23.02;;
57635;SDS011;43465;50.728;4.160;2023-11-21T04:28:06;35.90;;;22.90;;
57635;SDS011;43465;50.728;4.160;2023-11-21T04:30:31;40.40;;;22.73;;
57635;SDS011;43465;50.728;4.160;2023-11-21T04:32:57;36.35;;;21.92;;
57635;SDS011;43465;50.728;4.160;2023-11-21T04:35:23;39.30;;;22.20;;
57635;SDS011;43465;50.728;4.160;2023-11-21T04:37:49;39.40;;;22.65;;
57635;SDS011;43465;50.728;4.160;2023-11-21T04:40:16;34.90;;;21.83;;
57635;SDS011;43465;50.728;4.160;2023-11-21T04:42:42;37.85;;;21.15;;
57635;SDS011;43465;50.728;4.160;2023-11-21T04:45:08;32.92;;;21.73;;
57635;SDS011;43465;50.728;4.160;2023-11-21T04:47:34;34.58;;;21.92;;
57635;SDS011;43465;50.728;4.160;2023-11-21T04:50:00;35.42;;;22.80;;
57635;SDS011;43465;50.728;4.160;2023-11-21T04:52:27;35.50;;;21.55;;
57635;SDS011;43465;50.728;4.160;2023-11-21T04:54:53;36.38;;;23.15;;
57635;SDS011;43465;50.728;4.160;2023-11-21T04:57:19;40.00;;;23.50;;
57635;SDS011;43465;50.728;4.160;2023-11-21T04:59:46;44.47;;;23.55;;
57635;SDS011;43465;50.728;4.160;2023-11-21T05:02:13;36.75;;;23.63;;
57635;SDS011;43465;50.728;4.160;2023-11-21T05:04:39;39.75;;;22.98;;
57635;SDS011;43465;50.728;4.160;2023-11-21T05:07:05;37.17;;;23.35;;
57635;SDS011;43465;50.728;4.160;2023-11-21T05:09:30;40.45;;;24.02;;
57635;SDS011;43465;50.728;4.160;2023-11-21T05:11:57;43.25;;;25.00;;
57635;SDS011;43465;50.728;4.160;2023-11-21T05:14:23;39.28;;;24.20;;
57635;SDS011;43465;50.728;4.160;2023-11-21T05:16:48;47.45;;;25.77;;
57635;SDS011;43465;50.728;4.160;2023-11-21T05:19:16;48.85;;;27.02;;
57635;SDS011;43465;50.728;4.160;2023-11-21T05:21:41;52.55;;;26.85;;
57635;SDS011;43465;50.728;4.160;2023-11-21T05:24:07;41.10;;;25.63;;
57635;SDS011;43465;50.728;4.160;2023-11-21T05:26:33;41.72;;;26.23;;
57635;SDS011;43465;50.728;4.160;2023-11-21T05:28:58;49.08;;;26.50;;
57635;SDS011;43465;50.728;4.160;2023-11-21T05:31:24;48.33;;;25.80;;
57635;SDS011;43465;50.728;4.160;2023-11-21T05:33:50;47.05;;;24.45;;
57635;SDS011;43465;50.728;4.160;2023-11-21T05:36:15;52.47;;;25.27;;
57635;SDS011;43465;50.728;4.160;2023-11-21T05:38:41;40.22;;;24.08;;
57635;SDS011;43465;50.728;4.160;2023-11-21T05:41:07;45.72;;;25.48;;
57635;SDS011;43465;50.728;4.160;2023-11-21T05:43:36;49.33;;;23.90;;
57635;SDS011;43465;50.728;4.160;2023-11-21T05:46:01;39.88;;;24.17;;
57635;SDS011;43465;50.728;4.160;2023-11-21T05:48:27;42.90;;;24.90;;
57635;SDS011;43465;50.728;4.160;2023-11-21T05:50:53;40.90;;;24.35;;
57635;SDS011;43465;50.728;4.160;2023-11-21T05:53:18;50.13;;;25.50;;
57635;SDS011;43465;50.728;4.160;2023-11-21T05:55:44;48.20;;;25.30;;
57635;SDS011;43465;50.728;4.160;2023-11-21T05:58:10;45.33;;;26.88;;
57635;SDS011;43465;50.728;4.160;2023-11-21T06:00:36;49.92;;;27.00;;
57635;SDS011;43465;50.728;4.160;2023-11-21T06:03:01;52.67;;;27.85;;
57635;SDS011;43465;50.728;4.160;2023-11-21T06:05:28;70.53;;;29.35;;
57635;SDS011;43465;50.728;4.160;2023-11-21T06:07:54;44.05;;;26.23;;
57635;SDS011;43465;50.728;4.160;2023-11-21T06:10:23;37.00;;;25.08;;
57635;SDS011;43465;50.728;4.160;2023-11-21T06:12:50;32.03;;;22.10;;
57635;SDS011;43465;50.728;4.160;2023-11-21T06:15:15;33.05;;;24.67;;
57635;SDS011;43465;50.728;4.160;2023-11-21T06:17:44;39.45;;;24.00;;
57635;SDS011;43465;50.728;4.160;2023-11-21T06:20:14;44.05;;;23.70;;
57635;SDS011;43465;50.728;4.160;2023-11-21T06:22:41;42.50;;;23.88;;
57635;SDS011;43465;50.728;4.160;2023-11-21T06:25:07;41.90;;;24.67;;
57635;SDS011;43465;50.728;4.160;2023-11-21T06:27:38;35.58;;;22.85;;
57635;SDS011;43465;50.728;4.160;2023-11-21T06:30:05;41.70;;;24.45;;
57635;SDS011;43465;50.728;4.160;2023-11-21T06:32:31;42.83;;;24.35;;
57635;SDS011;43465;50.728;4.160;2023-11-21T06:34:57;41.85;;;23.30;;
57635;SDS011;43465;50.728;4.160;2023-11-21T06:37:26;38.65;;;24.40;;
57635;SDS011;43465;50.728;4.160;2023-11-21T06:39:52;33.28;;;23.27;;
57635;SDS011;43465;50.728;4.160;2023-11-21T06:42:19;44.35;;;24.38;;
57635;SDS011;43465;50.728;4.160;2023-11-21T06:44:45;46.13;;;24.55;;
57635;SDS011;43465;50.728;4.160;2023-11-21T06:47:11;41.22;;;22.67;;
57635;SDS011;43465;50.728;4.160;2023-11-21T06:49:37;39.33;;;23.15;;
57635;SDS011;43465;50.728;4.160;2023-11-21T06:52:03;39.35;;;23.42;;
57635;SDS011;43465;50.728;4.160;2023-11-21T06:54:30;32.35;;;22.75;;
57635;SDS011;43465;50.728;4.160;2023-11-21T06:56:56;36.35;;;22.42;;
57635;SDS011;43465;50.728;4.160;2023-11-21T06:59:22;37.92;;;22.10;;
57635;SDS011;43465;50.728;4.160;2023-11-21T07:01:48;42.85;;;22.42;;
57635;SDS011;43465;50.728;4.160;2023-11-21T07:04:14;53.33;;;23.67;;
57635;SDS011;43465;50.728;4.160;2023-11-21T07:06:40;44.20;;;22.33;;
57635;SDS011;43465;50.728;4.160;2023-11-21T07:09:06;41.63;;;21.90;;
57635;SDS011;43465;50.728;4.160;2023-11-21T07:11:33;53.22;;;23.45;;
57635;SDS011;43465;50.728;4.160;2023-11-21T07:13:59;53.00;;;25.10;;
57635;SDS011;43465;50.728;4.160;2023-11-21T07:16:32;62.13;;;26.20;;
57635;SDS011;43465;50.728;4.160;2023-11-21T07:19:04;54.77;;;25.53;;
57635;SDS011;43465;50.728;4.160;2023-11-21T07:21:33;48.58;;;24.52;;
57635;SDS011;43465;50.728;4.160;2023-11-21T07:24:00;52.28;;;25.83;;
57635;SDS011;43465;50.728;4.160;2023-11-21T07:26:26;64.45;;;27.33;;
57635;SDS011;43465;50.728;4.160;2023-11-21T07:28:52;56.85;;;26.33;;
57635;SDS011;43465;50.728;4.160;2023-11-21T07:31:18;66.07;;;28.00;;
57635;SDS011;43465;50.728;4.160;2023-11-21T07:33:44;59.53;;;26.42;;
57635;SDS011;43465;50.728;4.160;2023-11-21T07:36:12;62.13;;;27.38;;
57635;SDS011;43465;50.728;4.160;2023-11-21T07:38:38;61.05;;;27.40;;
57635;SDS011;43465;50.728;4.160;2023-11-21T07:41:04;54.08;;;27.60;;
57635;SDS011;43465;50.728;4.160;2023-11-21T07:43:32;72.57;;;29.90;;
57635;SDS011;43465;50.728;4.160;2023-11-21T07:46:02;91.07;;;29.10;;
57635;SDS011;43465;50.728;4.160;2023-11-21T07:48:31;72.97;;;30.77;;
57635;SDS011;43465;50.728;4.160;2023-11-21T07:50:58;76.53;;;29.80;;
57635;SDS011;43465;50.728;4.160;2023-11-21T07:53:24;101.97;;;31.55;;
57635;SDS011;43465;50.728;4.160;2023-11-21T07:55:50;79.95;;;30.10;;
57635;SDS011;43465;50.728;4.160;2023-11-21T07:58:17;91.97;;;30.48;;
57635;SDS011;43465;50.728;4.160;2023-11-21T08:00:43;81.05;;;29.98;;
57635;SDS011;43465;50.728;4.160;2023-11-21T08:03:08;79.22;;;30.65;;
57635;SDS011;43465;50.728;4.160;2023-11-21T08:05:34;91.70;;;30.05;;
57635;SDS011;43465;50.728;4.160;2023-11-21T08:08:00;70.65;;;29.05;;
57635;SDS011;43465;50.728;4.160;2023-11-21T08:10:26;77.13;;;30.50;;
57635;SDS011;43465;50.728;4.160;2023-11-21T08:12:51;82.53;;;31.60;;
57635;SDS011;43465;50.728;4.160;2023-11-21T08:15:18;72.65;;;30.73;;
57635;SDS011;43465;50.728;4.160;2023-11-21T08:17:44;123.47;;;33.35;;
57635;SDS011;43465;50.728;4.160;2023-11-21T08:20:11;111.28;;;33.90;;
57635;SDS011;43465;50.728;4.160;2023-11-21T08:22:37;59.92;;;31.77;;
57635;SDS011;43465;50.728;4.160;2023-11-21T08:25:06;67.18;;;32.78;;
57635;SDS011;43465;50.728;4.160;2023-11-21T08:27:33;69.40;;;33.65;;
57635;SDS011;43465;50.728;4.160;2023-11-21T08:29:59;67.97;;;33.83;;
57635;SDS011;43465;50.728;4.160;2023-11-21T08:32:25;161.75;;;34.50;;
57635;SDS011;43465;50.728;4.160;2023-11-21T08:34:51;68.80;;;32.63;;
57635;SDS011;43465;50.728;4.160;2023-11-21T08:37:17;181.38;;;34.70;;
57635;SDS011;43465;50.728;4.160;2023-11-21T08:39:43;151.32;;;35.75;;
57635;SDS011;43465;50.728;4.160;2023-11-21T08:42:09;112.10;;;32.95;;
57635;SDS011;43465;50.728;4.160;2023-11-21T08:44:35;60.58;;;31.67;;
57635;SDS011;43465;50.728;4.160;2023-11-21T08:47:01;60.08;;;30.67;;
57635;SDS011;43465;50.728;4.160;2023-11-21T08:49:27;69.18;;;33.85;;
57635;SDS011;43465;50.728;4.160;2023-11-21T08:51:53;71.65;;;28.70;;
57635;SDS011;43465;50.728;4.160;2023-11-21T08:54:20;69.38;;;30.63;;
57635;SDS011;43465;50.728;4.160;2023-11-21T08:56:46;65.22;;;30.05;;
57635;SDS011;43465;50.728;4.160;2023-11-21T08:59:12;65.13;;;30.17;;
57635;SDS011;43465;50.728;4.160;2023-11-21T09:01:39;63.90;;;29.98;;
57635;SDS011;43465;50.728;4.160;2023-11-21T09:04:05;56.00;;;29.92;;
57635;SDS011;43465;50.728;4.160;2023-11-21T09:06:31;54.08;;;29.02;;
57635;SDS011;43465;50.728;4.160;2023-11-21T09:08:57;65.95;;;29.30;;
57635;SDS011;43465;50.728;4.160;2023-11-21T09:11:23;48.15;;;26.88;;
57635;SDS011;43465;50.728;4.160;2023-11-21T09:13:50;48.95;;;27.52;;
57635;SDS011;43465;50.728;4.160;2023-11-21T09:16:16;45.65;;;26.00;;
57635;SDS011;43465;50.728;4.160;2023-11-21T09:18:42;48.78;;;25.40;;
57635;SDS011;43465;50.728;4.160;2023-11-21T09:21:08;60.90;;;26.48;;
57635;SDS011;43465;50.728;4.160;2023-11-21T09:23:34;49.13;;;25.90;;
57635;SDS011;43465;50.728;4.160;2023-11-21T09:26:00;50.22;;;25.35;;
57635;SDS011;43465;50.728;4.160;2023-11-21T09:28:26;48.70;;;25.55;;
57635;SDS011;43465;50.728;4.160;2023-11-21T09:30:53;47.03;;;26.05;;
57635;SDS011;43465;50.728;4.160;2023-11-21T09:33:19;43.47;;;24.73;;
57635;SDS011;43465;50.728;4.160;2023-11-21T09:35:45;44.10;;;23.92;;
57635;SDS011;43465;50.728;4.160;2023-11-21T09:38:12;45.30;;;24.50;;
57635;SDS011;43465;50.728;4.160;2023-11-21T09:40:38;45.47;;;23.83;;
57635;SDS011;43465;50.728;4.160;2023-11-21T09:43:05;45.72;;;24.17;;
57635;SDS011;43465;50.728;4.160;2023-11-21T09:45:36;40.17;;;23.35;;
57635;SDS011;43465;50.728;4.160;2023-11-21T09:48:03;42.88;;;22.92;;
57635;SDS011;43465;50.728;4.160;2023-11-21T09:50:31;40.10;;;22.45;;
57635;SDS011;43465;50.728;4.160;2023-11-21T09:55:48;39.53;;;22.70;;
57635;SDS011;43465;50.728;4.160;2023-11-21T09:58:17;40.30;;;21.42;;
57635;SDS011;43465;50.728;4.160;2023-11-21T10:00:45;37.28;;;21.27;;
57635;SDS011;43465;50.728;4.160;2023-11-21T10:03:12;37.05;;;21.83;;
57635;SDS011;43465;50.728;4.160;2023-11-21T10:05:39;44.33;;;24.17;;
57635;SDS011;43465;50.728;4.160;2023-11-21T10:08:07;42.10;;;23.77;;
57635;SDS011;43465;50.728;4.160;2023-11-21T10:10:35;51.65;;;28.48;;
57635;SDS011;43465;50.728;4.160;2023-11-21T10:13:13;46.38;;;26.73;;
57635;SDS011;43465;50.728;4.160;2023-11-21T10:15:41;71.15;;;34.22;;
57635;SDS011;43465;50.728;4.160;2023-11-21T10:18:13;230.23;;;150.13;;
57635;SDS011;43465;50.728;4.160;2023-11-21T10:20:44;187.35;;;127.15;;
57635;SDS011;43465;50.728;4.160;2023-11-21T10:23:17;101.88;;;67.35;;
57635;SDS011;43465;50.728;4.160;2023-11-21T10:25:44;83.50;;;53.58;;
57635;SDS011;43465;50.728;4.160;2023-11-21T10:28:09;50.17;;;26.52;;
57635;SDS011;43465;50.728;4.160;2023-11-21T10:30:35;51.90;;;29.65;;
57635;SDS011;43465;50.728;4.160;2023-11-21T10:33:03;53.97;;;32.42;;
57635;SDS011;43465;50.728;4.160;2023-11-21T10:35:39;62.78;;;38.58;;
57635;SDS011;43465;50.728;4.160;2023-11-21T10:38:12;54.10;;;31.73;;
57635;SDS011;43465;50.728;4.160;2023-11-21T10:40:39;48.47;;;31.27;;
57635;SDS011;43465;50.728;4.160;2023-11-21T10:43:09;36.72;;;23.02;;
57635;SDS011;43465;50.728;4.160;2023-11-21T10:45:38;34.75;;;22.65;;
57635;SDS011;43465;50.728;4.160;2023-11-21T10:48:05;33.83;;;22.70;;
57635;SDS011;43465;50.728;4.160;2023-11-21T10:50:35;34.13;;;23.40;;
57635;SDS011;43465;50.728;4.160;2023-11-21T10:53:05;34.55;;;22.83;;
57635;SDS011;43465;50.728;4.160;2023-11-21T10:55:31;39.13;;;24.65;;
57635;SDS011;43465;50.728;4.160;2023-11-21T10:58:00;33.38;;;23.60;;
57635;SDS011;43465;50.728;4.160;2023-11-21T11:00:28;35.45;;;23.38;;
57635;SDS011;43465;50.728;4.160;2023-11-21T11:02:54;29.92;;;20.85;;
57635;SDS011;43465;50.728;4.160;2023-11-21T11:05:22;28.90;;;18.92;;
57635;SDS011;43465;50.728;4.160;2023-11-21T11:07:51;28.80;;;21.35;;
57635;SDS011;43465;50.728;4.160;2023-11-21T11:10:28;31.17;;;23.85;;
57635;SDS011;43465;50.728;4.160;2023-11-21T11:12:57;31.42;;;23.00;;
57635;SDS011;43465;50.728;4.160;2023-11-21T11:15:24;26.42;;;19.42;;
57635;SDS011;43465;50.728;4.160;2023-11-21T11:17:51;26.85;;;18.25;;
57635;SDS011;43465;50.728;4.160;2023-11-21T11:20:21;27.98;;;19.55;;
57635;SDS011;43465;50.728;4.160;2023-11-21T11:23:11;26.92;;;18.88;;
57635;SDS011;43465;50.728;4.160;2023-11-21T11:35:17;30.73;;;20.52;;
57635;SDS011;43465;50.728;4.160;2023-11-21T11:37:49;26.05;;;20.52;;
57635;SDS011;43465;50.728;4.160;2023-11-21T11:40:15;31.02;;;20.52;;
57635;SDS011;43465;50.728;4.160;2023-11-21T11:42:55;28.02;;;21.35;;
57635;SDS011;43465;50.728;4.160;2023-11-21T11:45:23;35.42;;;20.75;;
57635;SDS011;43465;50.728;4.160;2023-11-21T11:47:57;27.80;;;20.00;;
57635;SDS011;43465;50.728;4.160;2023-11-21T11:50:22;24.90;;;18.63;;
57635;SDS011;43465;50.728;4.160;2023-11-21T11:52:50;25.80;;;19.05;;
57635;SDS011;43465;50.728;4.160;2023-11-21T11:55:20;25.58;;;18.80;;
57635;SDS011;43465;50.728;4.160;2023-11-21T11:57:48;26.33;;;19.05;;
57635;SDS011;43465;50.728;4.160;2023-11-21T12:00:18;22.73;;;17.58;;
57635;SDS011;43465;50.728;4.160;2023-11-21T12:02:49;27.52;;;17.45;;
57635;SDS011;43465;50.728;4.160;2023-11-21T12:05:22;23.77;;;17.52;;
57635;SDS011;43465;50.728;4.160;2023-11-21T12:07:57;22.17;;;16.35;;
57635;SDS011;43465;50.728;4.160;2023-11-21T12:10:29;22.23;;;16.40;;
57635;SDS011;43465;50.728;4.160;2023-11-21T12:12:56;21.35;;;16.33;;
57635;SDS011;43465;50.728;4.160;2023-11-21T12:15:24;21.60;;;15.82;;
57635;SDS011;43465;50.728;4.160;2023-11-21T12:17:50;19.40;;;13.80;;
57635;SDS011;43465;50.728;4.160;2023-11-21T12:20:23;20.58;;;14.35;;
57635;SDS011;43465;50.728;4.160;2023-11-21T12:22:50;18.63;;;14.32;;
57635;SDS011;43465;50.728;4.160;2023-11-21T12:25:21;18.42;;;12.75;;
57635;SDS011;43465;50.728;4.160;2023-11-21T12:27:51;20.85;;;12.73;;
57635;SDS011;43465;50.728;4.160;2023-11-21T12:30:18;14.48;;;10.85;;
57635;SDS011;43465;50.728;4.160;2023-11-21T12:32:48;12.85;;;10.82;;
57635;SDS011;43465;50.728;4.160;2023-11-21T12:35:18;14.65;;;9.27;;
57635;SDS011;43465;50.728;4.160;2023-11-21T12:37:46;10.27;;;7.47;;
57635;SDS011;43465;50.728;4.160;2023-11-21T12:40:14;9.93;;;7.03;;
57635;SDS011;43465;50.728;4.160;2023-11-21T12:42:41;9.63;;;6.63;;
57635;SDS011;43465;50.728;4.160;2023-11-21T12:45:08;6.93;;;6.22;;
57635;SDS011;43465;50.728;4.160;2023-11-21T12:47:34;8.75;;;5.90;;
57635;SDS011;43465;50.728;4.160;2023-11-21T12:50:02;8.93;;;6.15;;
57635;SDS011;43465;50.728;4.160;2023-11-21T12:52:28;7.22;;;5.88;;
57635;SDS011;43465;50.728;4.160;2023-11-21T12:54:53;10.75;;;6.35;;
57635;SDS011;43465;50.728;4.160;2023-11-21T12:57:21;8.35;;;5.72;;
57635;SDS011;43465;50.728;4.160;2023-11-21T12:59:56;16.33;;;6.82;;
57635;SDS011;43465;50.728;4.160;2023-11-21T13:02:25;12.82;;;5.97;;
57635;SDS011;43465;50.728;4.160;2023-11-21T13:04:52;13.75;;;10.02;;
57635;SDS011;43465;50.728;4.160;2023-11-21T13:07:19;15.52;;;10.65;;
57635;SDS011;43465;50.728;4.160;2023-11-21T13:09:45;14.07;;;7.13;;
57635;SDS011;43465;50.728;4.160;2023-11-21T13:12:11;12.13;;;6.38;;
57635;SDS011;43465;50.728;4.160;2023-11-21T13:14:39;12.30;;;7.43;;
57635;SDS011;43465;50.728;4.160;2023-11-21T13:17:05;13.50;;;7.50;;
57635;SDS011;43465;50.728;4.160;2023-11-21T13:19:31;34.58;;;14.40;;
57635;SDS011;43465;50.728;4.160;2023-11-21T13:21:56;25.83;;;10.52;;
57635;SDS011;43465;50.728;4.160;2023-11-21T13:24:23;8.70;;;6.47;;
57635;SDS011;43465;50.728;4.160;2023-11-21T13:26:51;9.05;;;6.68;;
57635;SDS011;43465;50.728;4.160;2023-11-21T13:29:16;10.48;;;7.03;;
57635;SDS011;43465;50.728;4.160;2023-11-21T13:31:42;11.25;;;6.88;;
57635;SDS011;43465;50.728;4.160;2023-11-21T13:34:08;8.93;;;6.95;;
57635;SDS011;43465;50.728;4.160;2023-11-21T13:36:33;10.68;;;6.53;;
57635;SDS011;43465;50.728;4.160;2023-11-21T13:39:00;8.15;;;6.28;;
57635;SDS011;43465;50.728;4.160;2023-11-21T13:41:40;10.70;;;8.15;;
57635;SDS011;43465;50.728;4.160;2023-11-21T13:44:06;14.02;;;11.68;;
57635;SDS011;43465;50.728;4.160;2023-11-21T13:46:51;13.25;;;7.95;;
57635;SDS011;43465;50.728;4.160;2023-11-21T13:49:17;11.82;;;8.38;;
57635;SDS011;43465;50.728;4.160;2023-11-21T13:51:46;12.30;;;8.40;;
57635;SDS011;43465;50.728;4.160;2023-11-21T13:54:15;10.20;;;8.90;;
57635;SDS011;43465;50.728;4.160;2023-11-21T13:56:41;12.75;;;8.20;;
57635;SDS011;43465;50.728;4.160;2023-11-21T13:59:09;14.32;;;9.27;;
57635;SDS011;43465;50.728;4.160;2023-11-21T14:01:55;14.63;;;11.15;;
57635;SDS011;43465;50.728;4.160;2023-11-21T14:04:22;9.45;;;8.30;;
57635;SDS011;43465;50.728;4.160;2023-11-21T14:06:51;14.00;;;12.52;;
57635;SDS011;43465;50.728;4.160;2023-11-21T14:09:20;10.30;;;8.63;;
57635;SDS011;43465;50.728;4.160;2023-11-21T14:11:54;11.05;;;9.25;;
57635;SDS011;43465;50.728;4.160;2023-11-21T14:14:25;10.55;;;9.20;;
57635;SDS011;43465;50.728;4.160;2023-11-21T14:16:55;10.55;;;9.07;;
57635;SDS011;43465;50.728;4.160;2023-11-21T14:19:23;11.90;;;9.48;;
57635;SDS011;43465;50.728;4.160;2023-11-21T14:21:55;12.27;;;9.68;;
57635;SDS011;43465;50.728;4.160;2023-11-21T14:24:21;9.93;;;8.93;;
57635;SDS011;43465;50.728;4.160;2023-11-21T14:26:48;10.52;;;9.52;;
57635;SDS011;43465;50.728;4.160;2023-11-21T14:29:15;13.70;;;9.52;;
57635;SDS011;43465;50.728;4.160;2023-11-21T14:31:44;13.55;;;9.40;;
57635;SDS011;43465;50.728;4.160;2023-11-21T14:34:13;10.10;;;9.00;;
57635;SDS011;43465;50.728;4.160;2023-11-21T14:36:40;11.38;;;9.82;;